sensor_id;sensor_type;location;lat;lon;timestamp;pressure;altitude;pressure_sealevel;temperature
73685;BMP280;61985;51.070;14.064;2022-09-09T00:00:54;98381.47;;;12.61
73685;BMP280;61985;51.070;14.064;2022-09-09T00:03:38;98383.41;;;12.60
73685;BMP280;61985;51.070;14.064;2022-09-09T00:06:16;98381.25;;;12.46
73685;BMP280;61985;51.070;14.064;2022-09-09T00:11:30;98374.47;;;12.41
73685;BMP280;61985;51.070;14.064;2022-09-09T00:14:00;98381.19;;;12.37
73685;BMP280;61985;51.070;14.064;2022-09-09T00:16:32;98389.19;;;12.40
73685;BMP280;61985;51.070;14.064;2022-09-09T00:22:02;98373.41;;;12.39
73685;BMP280;61985;51.070;14.064;2022-09-09T00:24:45;98376.28;;;12.44
73685;BMP280;61985;51.070;14.064;2022-09-09T00:27:22;98369.84;;;12.51
73685;BMP280;61985;51.070;14.064;2022-09-09T00:29:59;98370.19;;;12.53
73685;BMP280;61985;51.070;14.064;2022-09-09T00:32:30;98372.91;;;12.62
73685;BMP280;61985;51.070;14.064;2022-09-09T00:35:21;98374.13;;;12.71
73685;BMP280;61985;51.070;14.064;2022-09-09T00:37:46;98377.59;;;12.71
73685;BMP280;61985;51.070;14.064;2022-09-09T00:40:29;98380.03;;;12.78
73685;BMP280;61985;51.070;14.064;2022-09-09T00:43:30;98380.19;;;12.75
73685;BMP280;61985;51.070;14.064;2022-09-09T00:51:52;98375.69;;;12.81
73685;BMP280;61985;51.070;14.064;2022-09-09T00:59:30;98379.75;;;12.85
73685;BMP280;61985;51.070;14.064;2022-09-09T01:02:02;98378.41;;;12.81
73685;BMP280;61985;51.070;14.064;2022-09-09T01:04:34;98390.84;;;12.78
73685;BMP280;61985;51.070;14.064;2022-09-09T01:07:12;98383.63;;;12.75
73685;BMP280;61985;51.070;14.064;2022-09-09T01:09:57;98390.22;;;12.74
73685;BMP280;61985;51.070;14.064;2022-09-09T01:12:38;98392.56;;;12.63
73685;BMP280;61985;51.070;14.064;2022-09-09T01:17:49;98396.19;;;12.60
73685;BMP280;61985;51.070;14.064;2022-09-09T01:20:26;98403.06;;;12.52
73685;BMP280;61985;51.070;14.064;2022-09-09T01:28:25;98395.16;;;12.35
73685;BMP280;61985;51.070;14.064;2022-09-09T01:30:52;98396.97;;;12.38
73685;BMP280;61985;51.070;14.064;2022-09-09T01:33:18;98401.00;;;12.34
73685;BMP280;61985;51.070;14.064;2022-09-09T01:36:06;98391.81;;;12.31
73685;BMP280;61985;51.070;14.064;2022-09-09T01:38:34;98382.91;;;12.21
73685;BMP280;61985;51.070;14.064;2022-09-09T01:41:01;98378.53;;;12.15
73685;BMP280;61985;51.070;14.064;2022-09-09T01:43:27;98379.34;;;12.02
73685;BMP280;61985;51.070;14.064;2022-09-09T01:45:55;98379.66;;;12.04
73685;BMP280;61985;51.070;14.064;2022-09-09T01:48:23;98382.66;;;12.06
73685;BMP280;61985;51.070;14.064;2022-09-09T01:50:49;98385.31;;;11.97
73685;BMP280;61985;51.070;14.064;2022-09-09T01:53:16;98387.03;;;11.91
73685;BMP280;61985;51.070;14.064;2022-09-09T01:55:52;98384.63;;;11.84
73685;BMP280;61985;51.070;14.064;2022-09-09T02:03:52;98388.56;;;11.92
73685;BMP280;61985;51.070;14.064;2022-09-09T02:06:34;98375.06;;;11.70
73685;BMP280;61985;51.070;14.064;2022-09-09T02:09:03;98382.84;;;11.68
73685;BMP280;61985;51.070;14.064;2022-09-09T02:11:30;98377.56;;;11.64
73685;BMP280;61985;51.070;14.064;2022-09-09T02:14:00;98380.03;;;11.72
73685;BMP280;61985;51.070;14.064;2022-09-09T02:17:09;98381.63;;;11.69
73685;BMP280;61985;51.070;14.064;2022-09-09T02:19:39;98380.59;;;11.66
73685;BMP280;61985;51.070;14.064;2022-09-09T02:22:05;98381.97;;;11.71
73685;BMP280;61985;51.070;14.064;2022-09-09T02:24:34;98385.53;;;11.68
73685;BMP280;61985;51.070;14.064;2022-09-09T02:27:02;98388.25;;;11.68
73685;BMP280;61985;51.070;14.064;2022-09-09T02:29:41;98389.38;;;11.58
73685;BMP280;61985;51.070;14.064;2022-09-09T02:32:12;98383.31;;;11.66
73685;BMP280;61985;51.070;14.064;2022-09-09T02:34:45;98382.22;;;11.64
73685;BMP280;61985;51.070;14.064;2022-09-09T02:37:15;98388.78;;;11.63
73685;BMP280;61985;51.070;14.064;2022-09-09T02:39:42;98384.41;;;11.56
73685;BMP280;61985;51.070;14.064;2022-09-09T02:42:07;98382.03;;;11.45
73685;BMP280;61985;51.070;14.064;2022-09-09T02:44:34;98383.75;;;11.52
73685;BMP280;61985;51.070;14.064;2022-09-09T02:52:07;98389.59;;;11.38
73685;BMP280;61985;51.070;14.064;2022-09-09T02:54:35;98380.34;;;11.39
73685;BMP280;61985;51.070;14.064;2022-09-09T02:57:16;98383.34;;;11.41
73685;BMP280;61985;51.070;14.064;2022-09-09T02:59:45;98388.31;;;11.42
73685;BMP280;61985;51.070;14.064;2022-09-09T03:02:12;98387.91;;;11.18
73685;BMP280;61985;51.070;14.064;2022-09-09T03:04:38;98385.56;;;11.20
73685;BMP280;61985;51.070;14.064;2022-09-09T03:07:04;98386.84;;;11.28
73685;BMP280;61985;51.070;14.064;2022-09-09T03:09:30;98381.88;;;11.27
73685;BMP280;61985;51.070;14.064;2022-09-09T03:11:56;98387.19;;;11.18
73685;BMP280;61985;51.070;14.064;2022-09-09T03:14:22;98390.28;;;11.16
73685;BMP280;61985;51.070;14.064;2022-09-09T03:16:53;98383.09;;;11.13
73685;BMP280;61985;51.070;14.064;2022-09-09T03:19:20;98384.91;;;11.16
73685;BMP280;61985;51.070;14.064;2022-09-09T03:21:46;98396.34;;;11.20
73685;BMP280;61985;51.070;14.064;2022-09-09T03:24:13;98385.84;;;11.22
73685;BMP280;61985;51.070;14.064;2022-09-09T03:26:39;98389.19;;;11.14
73685;BMP280;61985;51.070;14.064;2022-09-09T03:29:06;98381.78;;;11.18
73685;BMP280;61985;51.070;14.064;2022-09-09T03:31:32;98391.81;;;11.17
73685;BMP280;61985;51.070;14.064;2022-09-09T03:33:58;98392.13;;;11.19
73685;BMP280;61985;51.070;14.064;2022-09-09T03:36:25;98400.56;;;11.08
73685;BMP280;61985;51.070;14.064;2022-09-09T03:38:51;98401.53;;;11.02
73685;BMP280;61985;51.070;14.064;2022-09-09T03:41:17;98390.75;;;11.02
73685;BMP280;61985;51.070;14.064;2022-09-09T03:43:43;98396.75;;;11.06
73685;BMP280;61985;51.070;14.064;2022-09-09T03:46:09;98391.94;;;11.01
73685;BMP280;61985;51.070;14.064;2022-09-09T03:48:35;98388.81;;;11.02
73685;BMP280;61985;51.070;14.064;2022-09-09T03:51:00;98386.09;;;11.02
73685;BMP280;61985;51.070;14.064;2022-09-09T03:53:26;98383.84;;;11.01
73685;BMP280;61985;51.070;14.064;2022-09-09T03:55:54;98387.28;;;11.01
73685;BMP280;61985;51.070;14.064;2022-09-09T03:58:21;98388.38;;;11.04
73685;BMP280;61985;51.070;14.064;2022-09-09T04:01:01;98392.59;;;11.05
73685;BMP280;61985;51.070;14.064;2022-09-09T04:03:27;98389.38;;;10.97
73685;BMP280;61985;51.070;14.064;2022-09-09T04:05:54;98395.38;;;11.01
73685;BMP280;61985;51.070;14.064;2022-09-09T04:08:20;98390.19;;;11.07
73685;BMP280;61985;51.070;14.064;2022-09-09T04:10:49;98393.56;;;11.11
73685;BMP280;61985;51.070;14.064;2022-09-09T04:13:16;98396.75;;;11.06
73685;BMP280;61985;51.070;14.064;2022-09-09T04:15:43;98398.06;;;11.01
73685;BMP280;61985;51.070;14.064;2022-09-09T04:18:09;98393.44;;;11.02
73685;BMP280;61985;51.070;14.064;2022-09-09T04:20:34;98395.50;;;10.98
73685;BMP280;61985;51.070;14.064;2022-09-09T04:23:00;98398.63;;;10.96
73685;BMP280;61985;51.070;14.064;2022-09-09T04:25:26;98394.84;;;11.06
73685;BMP280;61985;51.070;14.064;2022-09-09T04:27:55;98399.16;;;11.04
73685;BMP280;61985;51.070;14.064;2022-09-09T04:30:21;98398.50;;;11.00
73685;BMP280;61985;51.070;14.064;2022-09-09T04:32:47;98403.13;;;10.99
73685;BMP280;61985;51.070;14.064;2022-09-09T04:35:12;98403.38;;;11.05
73685;BMP280;61985;51.070;14.064;2022-09-09T04:37:37;98404.44;;;11.07
73685;BMP280;61985;51.070;14.064;2022-09-09T04:40:03;98399.28;;;11.13
73685;BMP280;61985;51.070;14.064;2022-09-09T04:42:29;98401.09;;;11.16
73685;BMP280;61985;51.070;14.064;2022-09-09T04:44:54;98402.59;;;11.17
73685;BMP280;61985;51.070;14.064;2022-09-09T04:47:19;98401.63;;;11.24
73685;BMP280;61985;51.070;14.064;2022-09-09T04:49:45;98407.53;;;11.32
73685;BMP280;61985;51.070;14.064;2022-09-09T04:52:10;98402.47;;;11.34
73685;BMP280;61985;51.070;14.064;2022-09-09T04:54:35;98397.69;;;11.38
73685;BMP280;61985;51.070;14.064;2022-09-09T04:57:01;98395.31;;;11.40
73685;BMP280;61985;51.070;14.064;2022-09-09T04:59:27;98392.28;;;11.51
73685;BMP280;61985;51.070;14.064;2022-09-09T05:01:52;98396.38;;;11.55
73685;BMP280;61985;51.070;14.064;2022-09-09T05:04:20;98403.59;;;11.58
73685;BMP280;61985;51.070;14.064;2022-09-09T05:06:45;98402.63;;;11.65
73685;BMP280;61985;51.070;14.064;2022-09-09T05:09:11;98403.47;;;11.75
73685;BMP280;61985;51.070;14.064;2022-09-09T05:11:36;98413.25;;;11.81
73685;BMP280;61985;51.070;14.064;2022-09-09T05:14:02;98416.22;;;11.96
73685;BMP280;61985;51.070;14.064;2022-09-09T05:16:30;98411.34;;;12.04
73685;BMP280;61985;51.070;14.064;2022-09-09T05:18:59;98417.09;;;12.15
73685;BMP280;61985;51.070;14.064;2022-09-09T05:21:24;98408.03;;;12.31
73685;BMP280;61985;51.070;14.064;2022-09-09T05:23:51;98408.28;;;12.46
73685;BMP280;61985;51.070;14.064;2022-09-09T05:26:21;98413.28;;;12.57
73685;BMP280;61985;51.070;14.064;2022-09-09T05:28:47;98414.50;;;12.65
73685;BMP280;61985;51.070;14.064;2022-09-09T05:31:14;98415.00;;;12.73
73685;BMP280;61985;51.070;14.064;2022-09-09T05:33:41;98419.97;;;12.74
73685;BMP280;61985;51.070;14.064;2022-09-09T05:36:10;98418.19;;;12.80
73685;BMP280;61985;51.070;14.064;2022-09-09T05:38:38;98414.56;;;12.83
73685;BMP280;61985;51.070;14.064;2022-09-09T05:41:04;98410.13;;;12.90
73685;BMP280;61985;51.070;14.064;2022-09-09T05:43:30;98426.34;;;12.99
73685;BMP280;61985;51.070;14.064;2022-09-09T05:46:09;98425.81;;;13.13
73685;BMP280;61985;51.070;14.064;2022-09-09T05:48:39;98421.94;;;13.23
73685;BMP280;61985;51.070;14.064;2022-09-09T05:51:07;98421.50;;;13.34
73685;BMP280;61985;51.070;14.064;2022-09-09T05:53:34;98422.72;;;13.42
73685;BMP280;61985;51.070;14.064;2022-09-09T05:59:20;98434.91;;;13.65
73685;BMP280;61985;51.070;14.064;2022-09-09T06:01:45;98436.59;;;13.81
73685;BMP280;61985;51.070;14.064;2022-09-09T06:04:16;98438.22;;;13.88
73685;BMP280;61985;51.070;14.064;2022-09-09T06:06:42;98442.88;;;13.97
73685;BMP280;61985;51.070;14.064;2022-09-09T06:09:27;98440.63;;;14.04
73685;BMP280;61985;51.070;14.064;2022-09-09T06:12:00;98440.63;;;14.14
73685;BMP280;61985;51.070;14.064;2022-09-09T06:14:26;98433.22;;;14.23
73685;BMP280;61985;51.070;14.064;2022-09-09T06:16:52;98432.59;;;14.28
73685;BMP280;61985;51.070;14.064;2022-09-09T06:19:17;98439.22;;;14.37
73685;BMP280;61985;51.070;14.064;2022-09-09T06:21:43;98443.38;;;14.47
73685;BMP280;61985;51.070;14.064;2022-09-09T06:24:10;98444.56;;;14.55
73685;BMP280;61985;51.070;14.064;2022-09-09T06:26:38;98442.59;;;14.65
73685;BMP280;61985;51.070;14.064;2022-09-09T06:29:07;98444.63;;;14.79
73685;BMP280;61985;51.070;14.064;2022-09-09T06:31:34;98438.72;;;14.90
73685;BMP280;61985;51.070;14.064;2022-09-09T06:34:00;98438.66;;;14.99
73685;BMP280;61985;51.070;14.064;2022-09-09T06:36:28;98440.13;;;15.10
73685;BMP280;61985;51.070;14.064;2022-09-09T06:38:54;98450.34;;;15.15
73685;BMP280;61985;51.070;14.064;2022-09-09T06:41:24;98448.31;;;15.24
73685;BMP280;61985;51.070;14.064;2022-09-09T06:43:51;98446.47;;;15.31
73685;BMP280;61985;51.070;14.064;2022-09-09T06:46:21;98438.19;;;15.34
73685;BMP280;61985;51.070;14.064;2022-09-09T06:48:47;98447.03;;;15.35
73685;BMP280;61985;51.070;14.064;2022-09-09T06:51:16;98440.41;;;15.36
73685;BMP280;61985;51.070;14.064;2022-09-09T06:53:44;98439.50;;;15.39
73685;BMP280;61985;51.070;14.064;2022-09-09T06:58:35;98441.03;;;15.55
73685;BMP280;61985;51.070;14.064;2022-09-09T07:01:05;98445.19;;;15.65
73685;BMP280;61985;51.070;14.064;2022-09-09T07:03:30;98440.78;;;15.67
73685;BMP280;61985;51.070;14.064;2022-09-09T07:05:56;98440.59;;;15.71
73685;BMP280;61985;51.070;14.064;2022-09-09T07:08:22;98444.91;;;15.78
73685;BMP280;61985;51.070;14.064;2022-09-09T07:10:47;98442.22;;;15.78
73685;BMP280;61985;51.070;14.064;2022-09-09T07:13:13;98443.22;;;15.80
73685;BMP280;61985;51.070;14.064;2022-09-09T07:15:41;98449.97;;;15.85
73685;BMP280;61985;51.070;14.064;2022-09-09T07:18:06;98445.56;;;15.87
73685;BMP280;61985;51.070;14.064;2022-09-09T07:20:32;98446.22;;;15.97
73685;BMP280;61985;51.070;14.064;2022-09-09T07:22:57;98448.13;;;16.06
73685;BMP280;61985;51.070;14.064;2022-09-09T07:25:25;98447.56;;;16.17
73685;BMP280;61985;51.070;14.064;2022-09-09T07:27:53;98455.34;;;16.24
73685;BMP280;61985;51.070;14.064;2022-09-09T07:30:19;98437.81;;;16.40
73685;BMP280;61985;51.070;14.064;2022-09-09T07:32:44;98456.53;;;16.52
73685;BMP280;61985;51.070;14.064;2022-09-09T07:35:10;98448.72;;;16.75
73685;BMP280;61985;51.070;14.064;2022-09-09T07:37:38;98447.91;;;16.89
73685;BMP280;61985;51.070;14.064;2022-09-09T07:40:04;98446.66;;;17.05
73685;BMP280;61985;51.070;14.064;2022-09-09T07:42:30;98449.50;;;17.17
73685;BMP280;61985;51.070;14.064;2022-09-09T07:44:56;98450.66;;;17.30
73685;BMP280;61985;51.070;14.064;2022-09-09T07:47:21;98451.59;;;17.48
73685;BMP280;61985;51.070;14.064;2022-09-09T07:49:47;98444.69;;;17.73
73685;BMP280;61985;51.070;14.064;2022-09-09T07:52:15;98447.53;;;17.84
73685;BMP280;61985;51.070;14.064;2022-09-09T07:54:40;98449.41;;;17.99
73685;BMP280;61985;51.070;14.064;2022-09-09T07:57:05;98453.78;;;18.22
73685;BMP280;61985;51.070;14.064;2022-09-09T07:59:31;98453.78;;;18.22
73685;BMP280;61985;51.070;14.064;2022-09-09T08:01:56;98459.03;;;18.26
73685;BMP280;61985;51.070;14.064;2022-09-09T08:04:23;98461.06;;;18.31
73685;BMP280;61985;51.070;14.064;2022-09-09T08:06:52;98461.06;;;18.31
73685;BMP280;61985;51.070;14.064;2022-09-09T08:09:21;98460.56;;;18.32
73685;BMP280;61985;51.070;14.064;2022-09-09T08:11:47;98455.88;;;18.38
73685;BMP280;61985;51.070;14.064;2022-09-09T08:14:13;98455.66;;;18.36
73685;BMP280;61985;51.070;14.064;2022-09-09T08:16:42;98455.44;;;18.46
73685;BMP280;61985;51.070;14.064;2022-09-09T08:19:08;98457.78;;;18.64
73685;BMP280;61985;51.070;14.064;2022-09-09T08:21:35;98448.94;;;18.75
73685;BMP280;61985;51.070;14.064;2022-09-09T08:24:02;98449.16;;;18.71
73685;BMP280;61985;51.070;14.064;2022-09-09T08:26:32;98455.44;;;18.83
73685;BMP280;61985;51.070;14.064;2022-09-09T08:29:09;98452.41;;;18.81
73685;BMP280;61985;51.070;14.064;2022-09-09T08:31:40;98460.91;;;18.89
73685;BMP280;61985;51.070;14.064;2022-09-09T08:34:07;98454.03;;;19.05
73685;BMP280;61985;51.070;14.064;2022-09-09T08:36:39;98460.63;;;19.35
73685;BMP280;61985;51.070;14.064;2022-09-09T08:39:08;98459.41;;;19.53
73685;BMP280;61985;51.070;14.064;2022-09-09T08:47:25;98463.69;;;20.05
73685;BMP280;61985;51.070;14.064;2022-09-09T08:52:41;98474.81;;;19.56
73685;BMP280;61985;51.070;14.064;2022-09-09T08:55:41;98480.19;;;19.28
73685;BMP280;61985;51.070;14.064;2022-09-09T08:58:19;98478.19;;;19.17
73685;BMP280;61985;51.070;14.064;2022-09-09T09:03:38;98481.41;;;19.16
73685;BMP280;61985;51.070;14.064;2022-09-09T09:09:16;98475.16;;;19.10
73685;BMP280;61985;51.070;14.064;2022-09-09T09:11:48;98478.41;;;19.14
73685;BMP280;61985;51.070;14.064;2022-09-09T09:14:23;98468.75;;;19.18
73685;BMP280;61985;51.070;14.064;2022-09-09T09:17:03;98470.69;;;19.18
73685;BMP280;61985;51.070;14.064;2022-09-09T09:19:31;98472.47;;;19.21
73685;BMP280;61985;51.070;14.064;2022-09-09T09:22:17;98475.25;;;19.27
73685;BMP280;61985;51.070;14.064;2022-09-09T09:27:31;98485.97;;;19.41
73685;BMP280;61985;51.070;14.064;2022-09-09T09:29:59;98473.00;;;19.36
73685;BMP280;61985;51.070;14.064;2022-09-09T09:32:27;98480.72;;;19.38
73685;BMP280;61985;51.070;14.064;2022-09-09T09:34:57;98475.03;;;19.47
73685;BMP280;61985;51.070;14.064;2022-09-09T09:37:28;98483.25;;;19.53
73685;BMP280;61985;51.070;14.064;2022-09-09T09:39:54;98486.00;;;19.53
73685;BMP280;61985;51.070;14.064;2022-09-09T09:42:20;98489.72;;;19.55
73685;BMP280;61985;51.070;14.064;2022-09-09T09:44:45;98490.22;;;19.48
73685;BMP280;61985;51.070;14.064;2022-09-09T09:47:18;98497.91;;;19.50
73685;BMP280;61985;51.070;14.064;2022-09-09T09:50:00;98491.91;;;19.45
73685;BMP280;61985;51.070;14.064;2022-09-09T09:52:29;98507.31;;;19.37
73685;BMP280;61985;51.070;14.064;2022-09-09T09:54:56;98507.25;;;19.32
73685;BMP280;61985;51.070;14.064;2022-09-09T09:57:31;98517.84;;;19.01
73685;BMP280;61985;51.070;14.064;2022-09-09T10:02:41;98534.63;;;18.51
73685;BMP280;61985;51.070;14.064;2022-09-09T10:08:13;98545.66;;;18.10
73685;BMP280;61985;51.070;14.064;2022-09-09T10:13:27;98519.94;;;17.91
73685;BMP280;61985;51.070;14.064;2022-09-09T10:30:29;98497.63;;;18.18
73685;BMP280;61985;51.070;14.064;2022-09-09T10:33:31;98504.25;;;18.38
73685;BMP280;61985;51.070;14.064;2022-09-09T10:38:45;98505.44;;;18.69
73685;BMP280;61985;51.070;14.064;2022-09-09T10:44:18;98502.38;;;18.93
73685;BMP280;61985;51.070;14.064;2022-09-09T10:55:18;98484.72;;;19.37
73685;BMP280;61985;51.070;14.064;2022-09-09T10:57:52;98484.47;;;19.40
73685;BMP280;61985;51.070;14.064;2022-09-09T11:00:27;98477.81;;;19.64
73685;BMP280;61985;51.070;14.064;2022-09-09T11:03:01;98476.56;;;19.59
73685;BMP280;61985;51.070;14.064;2022-09-09T11:05:46;98464.91;;;19.87
73685;BMP280;61985;51.070;14.064;2022-09-09T11:08:22;98467.91;;;20.06
73685;BMP280;61985;51.070;14.064;2022-09-09T11:10:53;98473.13;;;20.26
73685;BMP280;61985;51.070;14.064;2022-09-09T11:18:38;98459.81;;;20.92
73685;BMP280;61985;51.070;14.064;2022-09-09T11:21:17;98456.94;;;21.21
73685;BMP280;61985;51.070;14.064;2022-09-09T11:23:48;98453.81;;;21.41
73685;BMP280;61985;51.070;14.064;2022-09-09T11:26:21;98456.94;;;21.62
73685;BMP280;61985;51.070;14.064;2022-09-09T11:29:19;98459.88;;;22.00
73685;BMP280;61985;51.070;14.064;2022-09-09T11:34:31;98455.63;;;21.69
73685;BMP280;61985;51.070;14.064;2022-09-09T11:37:11;98457.09;;;21.34
73685;BMP280;61985;51.070;14.064;2022-09-09T11:42:24;98450.88;;;20.75
73685;BMP280;61985;51.070;14.064;2022-09-09T11:44:50;98448.16;;;20.81
73685;BMP280;61985;51.070;14.064;2022-09-09T11:47:26;98440.50;;;21.21
73685;BMP280;61985;51.070;14.064;2022-09-09T11:52:43;98441.69;;;21.31
73685;BMP280;61985;51.070;14.064;2022-09-09T11:55:31;98433.78;;;21.10
73685;BMP280;61985;51.070;14.064;2022-09-09T11:58:05;98436.84;;;21.01
73685;BMP280;61985;51.070;14.064;2022-09-09T12:00:37;98429.91;;;21.00
73685;BMP280;61985;51.070;14.064;2022-09-09T12:03:04;98435.34;;;21.47
73685;BMP280;61985;51.070;14.064;2022-09-09T12:05:42;98425.19;;;21.36
73685;BMP280;61985;51.070;14.064;2022-09-09T12:08:10;98429.53;;;21.21
73685;BMP280;61985;51.070;14.064;2022-09-09T12:10:39;98416.66;;;21.04
73685;BMP280;61985;51.070;14.064;2022-09-09T12:13:26;98423.94;;;20.96
73685;BMP280;61985;51.070;14.064;2022-09-09T12:15:54;98426.41;;;20.94
73685;BMP280;61985;51.070;14.064;2022-09-09T12:21:06;98429.75;;;20.76
73685;BMP280;61985;51.070;14.064;2022-09-09T12:23:51;98423.00;;;20.77
73685;BMP280;61985;51.070;14.064;2022-09-09T12:34:11;98403.56;;;21.33
73685;BMP280;61985;51.070;14.064;2022-09-09T12:36:39;98417.50;;;21.35
73685;BMP280;61985;51.070;14.064;2022-09-09T12:39:19;98408.72;;;22.02
73685;BMP280;61985;51.070;14.064;2022-09-09T12:41:53;98403.16;;;22.76
73685;BMP280;61985;51.070;14.064;2022-09-09T12:44:22;98405.41;;;23.29
73685;BMP280;61985;51.070;14.064;2022-09-09T12:46:48;98393.78;;;23.82
73685;BMP280;61985;51.070;14.064;2022-09-09T12:52:02;98390.31;;;24.08
73685;BMP280;61985;51.070;14.064;2022-09-09T12:54:28;98377.19;;;24.27
73685;BMP280;61985;51.070;14.064;2022-09-09T12:56:53;98382.34;;;24.44
73685;BMP280;61985;51.070;14.064;2022-09-09T12:59:25;98382.97;;;24.50
73685;BMP280;61985;51.070;14.064;2022-09-09T13:01:56;98384.94;;;24.02
73685;BMP280;61985;51.070;14.064;2022-09-09T13:04:22;98373.19;;;23.88
73685;BMP280;61985;51.070;14.064;2022-09-09T13:06:47;98375.81;;;24.20
73685;BMP280;61985;51.070;14.064;2022-09-09T13:09:14;98375.38;;;24.30
73685;BMP280;61985;51.070;14.064;2022-09-09T13:11:41;98372.44;;;24.28
73685;BMP280;61985;51.070;14.064;2022-09-09T13:14:22;98374.69;;;23.44
73685;BMP280;61985;51.070;14.064;2022-09-09T13:16:58;98373.22;;;23.43
73685;BMP280;61985;51.070;14.064;2022-09-09T13:19:24;98371.53;;;23.66
73685;BMP280;61985;51.070;14.064;2022-09-09T13:21:54;98355.56;;;24.45
73685;BMP280;61985;51.070;14.064;2022-09-09T13:24:40;98357.59;;;24.99
73685;BMP280;61985;51.070;14.064;2022-09-09T13:27:24;98352.34;;;24.06
73685;BMP280;61985;51.070;14.064;2022-09-09T13:29:52;98355.06;;;23.53
73685;BMP280;61985;51.070;14.064;2022-09-09T13:32:22;98362.16;;;23.29
73685;BMP280;61985;51.070;14.064;2022-09-09T13:34:59;98363.19;;;23.13
73685;BMP280;61985;51.070;14.064;2022-09-09T13:37:35;98364.56;;;22.69
73685;BMP280;61985;51.070;14.064;2022-09-09T13:40:01;98365.34;;;23.33
73685;BMP280;61985;51.070;14.064;2022-09-09T13:42:29;98362.91;;;24.15
73685;BMP280;61985;51.070;14.064;2022-09-09T13:44:57;98357.91;;;24.01
73685;BMP280;61985;51.070;14.064;2022-09-09T13:47:31;98368.78;;;24.80
73685;BMP280;61985;51.070;14.064;2022-09-09T13:49:57;98355.31;;;25.32
73685;BMP280;61985;51.070;14.064;2022-09-09T13:52:23;98358.78;;;25.53
73685;BMP280;61985;51.070;14.064;2022-09-09T13:54:50;98354.06;;;25.62
73685;BMP280;61985;51.070;14.064;2022-09-09T13:59:43;98355.97;;;26.11
73685;BMP280;61985;51.070;14.064;2022-09-09T14:02:08;98354.63;;;25.18
73685;BMP280;61985;51.070;14.064;2022-09-09T14:04:34;98358.69;;;24.62
73685;BMP280;61985;51.070;14.064;2022-09-09T14:07:00;98349.84;;;24.29
73685;BMP280;61985;51.070;14.064;2022-09-09T14:09:25;98347.66;;;23.74
73685;BMP280;61985;51.070;14.064;2022-09-09T14:11:51;98341.50;;;23.55
73685;BMP280;61985;51.070;14.064;2022-09-09T14:14:16;98334.25;;;23.25
73685;BMP280;61985;51.070;14.064;2022-09-09T14:16:41;98337.47;;;22.78
73685;BMP280;61985;51.070;14.064;2022-09-09T14:19:08;98342.22;;;22.59
73685;BMP280;61985;51.070;14.064;2022-09-09T14:21:34;98339.44;;;22.21
73685;BMP280;61985;51.070;14.064;2022-09-09T14:23:59;98349.41;;;21.99
73685;BMP280;61985;51.070;14.064;2022-09-09T14:26:25;98332.72;;;21.97
73685;BMP280;61985;51.070;14.064;2022-09-09T14:28:51;98341.00;;;21.92
73685;BMP280;61985;51.070;14.064;2022-09-09T14:46:50;98329.97;;;20.71
73685;BMP280;61985;51.070;14.064;2022-09-09T14:49:15;98327.44;;;20.79
73685;BMP280;61985;51.070;14.064;2022-09-09T14:51:51;98313.25;;;20.80
73685;BMP280;61985;51.070;14.064;2022-09-09T14:54:17;98324.88;;;20.86
73685;BMP280;61985;51.070;14.064;2022-09-09T14:56:45;98326.13;;;20.85
73685;BMP280;61985;51.070;14.064;2022-09-09T14:59:12;98336.38;;;20.79
73685;BMP280;61985;51.070;14.064;2022-09-09T15:01:38;98332.63;;;20.77
73685;BMP280;61985;51.070;14.064;2022-09-09T15:04:04;98333.16;;;20.75
73685;BMP280;61985;51.070;14.064;2022-09-09T15:06:34;98330.91;;;20.79
73685;BMP280;61985;51.070;14.064;2022-09-09T15:09:00;98327.16;;;20.77
73685;BMP280;61985;51.070;14.064;2022-09-09T15:11:27;98327.47;;;20.67
73685;BMP280;61985;51.070;14.064;2022-09-09T15:13:55;98333.72;;;20.57
73685;BMP280;61985;51.070;14.064;2022-09-09T15:16:24;98353.28;;;20.08
73685;BMP280;61985;51.070;14.064;2022-09-09T15:18:52;98332.41;;;19.15
73685;BMP280;61985;51.070;14.064;2022-09-09T15:21:20;98336.00;;;18.67
73685;BMP280;61985;51.070;14.064;2022-09-09T15:23:46;98338.13;;;18.40
73685;BMP280;61985;51.070;14.064;2022-09-09T15:26:13;98347.47;;;18.28
73685;BMP280;61985;51.070;14.064;2022-09-09T15:28:39;98353.09;;;18.18
73685;BMP280;61985;51.070;14.064;2022-09-09T15:31:08;98358.69;;;17.98
73685;BMP280;61985;51.070;14.064;2022-09-09T15:33:34;98393.84;;;17.70
73685;BMP280;61985;51.070;14.064;2022-09-09T20:46:02;98483.13;;;15.26
73685;BMP280;61985;51.070;14.064;2022-09-09T20:48:31;98486.03;;;15.22
73685;BMP280;61985;51.070;14.064;2022-09-09T20:51:02;98488.75;;;15.22
73685;BMP280;61985;51.070;14.064;2022-09-09T20:53:27;98483.50;;;15.19
73685;BMP280;61985;51.070;14.064;2022-09-09T20:55:58;98475.91;;;15.23
